Terminal Aerodrome Forecast
Issued by NWS

Home | Current Version | Previous Version | Text Only | Print | Product List | Glossary Off
Versions: 1 2 3 4 5 6 7 8 9 10 11 12 13 14 15 16 17

000
FTUS43 KABR 212333
TAFMBG
TAF
KMBG 212333Z 2200/2224 15014KT P6SM SKC
     FM220200 13008KT P6SM SKC
     FM221600 18014KT P6SM SCT250
     FM222300 06008KT P6SM SCT250=

USA.gov is the U.S. government's official web portal to all federal, state and local government web resources and services.